Terminal Aerodrome Forecast
Issued by NWS Wakefield, VA

Home | Current Version | Previous Version | Text Only | Print | Product List | Glossary On
Versions: 1 2 3 4 5 6 7 8 9 10 11 12 13 14
000
FTUS41 KAKQ 310500
TAFSBY
TAF
KSBY 310520Z 3106/0106 18003KT P6SM BKN040
     FM311000 18003KT 5SM BR BKN025
     FM311300 21008KT P6SM SCT025 BKN250
     FM311500 21010KT P6SM SCT040 BKN250
     FM312300 18005KT P6SM BKN250=

USA.gov is the U.S. government's official web portal to all federal, state and local government web resources and services.